createdAt,value
2019-04-03T00:02:17.963Z,10.62
2019-04-03T00:04:45.310Z,10.31
2019-04-03T00:07:12.670Z,10.98
2019-04-03T00:09:40.541Z,10.72
2019-04-03T00:12:08.676Z,10.82
2019-04-03T00:14:37.321Z,10.77
2019-04-03T00:17:04.705Z,10.61
2019-04-03T00:19:32.061Z,10.40
2019-04-03T00:21:59.491Z,10.24
2019-04-03T00:24:26.919Z,10.95
2019-04-03T00:26:54.328Z,11.03
2019-04-03T00:29:22.675Z,10.57
2019-04-03T00:31:53.062Z,10.37
2019-04-03T00:34:19.898Z,10.11
2019-04-03T00:36:47.332Z,10.20
2019-04-03T00:39:14.720Z,10.26
2019-04-03T00:41:42.251Z,10.24
2019-04-03T00:44:09.702Z,10.01
2019-04-03T00:46:37.152Z,10.14
2019-04-03T00:49:04.490Z,10.03
2019-04-03T00:51:31.860Z,10.34
2019-04-03T00:53:59.263Z,10.40
2019-04-03T00:56:26.830Z,10.04
2019-04-03T00:58:55.405Z,9.94
2019-04-03T01:01:24.722Z,9.99
2019-04-03T01:03:52.808Z,9.91
2019-04-03T01:06:20.191Z,10.00
2019-04-03T01:08:47.569Z,10.09
2019-04-03T01:11:14.972Z,9.90
2019-04-03T01:13:42.446Z,9.93
2019-04-03T01:16:09.785Z,10.01
2019-04-03T01:18:37.122Z,9.60
2019-04-03T01:21:06.089Z,9.72
2019-04-03T01:23:33.911Z,9.83
2019-04-03T01:26:01.551Z,9.63
2019-04-03T01:28:28.937Z,9.81
2019-04-03T01:30:56.274Z,9.68
2019-04-03T01:33:23.611Z,9.74
2019-04-03T01:35:50.981Z,9.75
2019-04-03T01:38:19.466Z,9.84
2019-04-03T01:40:47.453Z,10.02
2019-04-03T01:43:15.921Z,9.88
2019-04-03T01:45:43.284Z,9.75
2019-04-03T01:48:10.671Z,9.78
2019-04-03T01:50:38.031Z,9.79
2019-04-03T01:53:05.505Z,9.88
2019-04-03T01:55:34.688Z,9.72
2019-04-03T01:58:02.121Z,9.87
2019-04-03T02:00:29.520Z,9.83
2019-04-03T02:02:56.890Z,9.81
2019-04-03T02:05:24.302Z,9.61
2019-04-03T02:07:51.705Z,9.79
2019-04-03T02:10:21.724Z,9.49
2019-04-03T02:12:51.308Z,9.67
2019-04-03T02:15:21.216Z,9.57
2019-04-03T02:17:47.694Z,9.52
2019-04-03T02:20:15.120Z,9.63
2019-04-03T02:22:42.511Z,9.68
2019-04-03T02:25:10.031Z,9.62
2019-04-03T02:27:37.388Z,9.85
2019-04-03T02:30:05.489Z,9.97
2019-04-03T02:32:33.261Z,9.64
2019-04-03T02:35:00.680Z,9.49
2019-04-03T02:37:28.048Z,9.79
2019-04-03T02:39:59.077Z,9.80
2019-04-03T02:42:24.808Z,9.82
2019-04-03T02:44:52.261Z,9.47
2019-04-03T02:47:19.831Z,9.38
2019-04-03T02:49:47.192Z,9.35
2019-04-03T02:52:14.707Z,9.47
2019-04-03T02:54:42.166Z,9.42
2019-04-03T02:57:09.542Z,9.55
2019-04-03T02:59:36.929Z,9.56
2019-04-03T03:02:04.328Z,9.27
2019-04-03T03:04:31.745Z,9.31
2019-04-03T03:06:59.146Z,9.13
2019-04-03T03:09:26.694Z,9.09
2019-04-03T03:11:55.955Z,8.70
2019-04-03T03:14:23.996Z,8.81
2019-04-03T03:16:52.117Z,9.07
2019-04-03T03:19:21.345Z,8.92
2019-04-03T03:21:50.234Z,8.70
2019-04-03T03:24:18.052Z,9.06
2019-04-03T03:26:45.491Z,8.88
2019-04-03T03:29:17.678Z,8.65
2019-04-03T03:32:05.700Z,8.66
2019-04-03T03:34:12.404Z,8.71
2019-04-03T03:36:40.504Z,8.80
2019-04-03T03:39:10.364Z,9.06
2019-04-03T03:41:37.420Z,8.97
2019-04-03T03:44:05.191Z,8.91
2019-04-03T03:46:34.262Z,8.78
2019-04-03T03:49:01.813Z,8.55
2019-04-03T03:51:32.027Z,8.40
2019-04-03T03:53:59.404Z,8.42
2019-04-03T03:56:30.889Z,8.37
2019-04-03T03:58:57.772Z,8.17
2019-04-03T04:01:25.675Z,8.33
2019-04-03T04:03:53.235Z,8.43
2019-04-03T04:06:20.589Z,8.63
2019-04-03T04:08:48.088Z,8.43
2019-04-03T04:11:15.583Z,8.16
2019-04-03T04:13:47.642Z,8.16
2019-04-03T04:16:12.355Z,8.41
2019-04-03T04:18:39.717Z,8.05
2019-04-03T04:21:09.570Z,8.26
2019-04-03T04:23:36.483Z,8.24
2019-04-03T04:26:03.882Z,8.67
2019-04-03T04:28:31.229Z,8.58
2019-04-03T04:30:59.131Z,8.31
2019-04-03T04:33:26.499Z,8.16
2019-04-03T04:35:53.956Z,8.39
2019-04-03T04:38:21.333Z,8.38
2019-04-03T04:40:48.731Z,8.34
2019-04-03T04:43:16.626Z,8.31
2019-04-03T04:45:44.971Z,8.23
2019-04-03T04:48:12.559Z,8.04
2019-04-03T04:50:40.000Z,8.05
2019-04-03T04:53:07.376Z,7.92
2019-04-03T04:55:35.976Z,8.02
2019-04-03T04:58:04.929Z,8.18
2019-04-03T05:00:32.998Z,7.91
2019-04-03T05:03:01.739Z,8.08
2019-04-03T05:05:31.085Z,8.00
2019-04-03T05:07:59.798Z,7.94
2019-04-03T05:10:28.120Z,8.00
2019-04-03T05:12:55.496Z,8.03
2019-04-03T05:15:23.971Z,7.96
2019-04-03T05:17:51.634Z,7.97
2019-04-03T05:20:20.219Z,8.03
2019-04-03T05:22:48.069Z,8.32
2019-04-03T05:25:15.771Z,8.15
2019-04-03T05:27:43.081Z,8.39
2019-04-03T05:30:13.057Z,8.26
2019-04-03T05:32:41.201Z,8.15
2019-04-03T05:35:09.212Z,7.99
2019-04-03T05:37:36.897Z,7.86
2019-04-03T05:40:05.162Z,8.22
2019-04-03T05:42:32.507Z,8.15
2019-04-03T05:44:59.867Z,8.31
2019-04-03T05:47:27.254Z,8.38
2019-04-03T05:49:56.104Z,8.17
2019-04-03T05:52:23.942Z,8.23
2019-04-03T05:54:51.395Z,8.08
2019-04-03T05:57:19.087Z,8.09
2019-04-03T05:59:58.710Z,8.26
2019-04-03T06:02:21.107Z,8.36
2019-04-03T06:04:48.090Z,8.68
2019-04-03T06:07:17.525Z,8.57
2019-04-03T06:09:44.769Z,8.59
2019-04-03T06:12:13.904Z,8.55
2019-04-03T06:14:41.400Z,8.56
2019-04-03T06:17:08.811Z,8.77
2019-04-03T06:19:39.184Z,8.90
2019-04-03T06:22:05.605Z,8.77
2019-04-03T06:24:33.011Z,8.67
2019-04-03T06:27:00.562Z,8.64
2019-04-03T06:29:28.200Z,8.65
2019-04-03T06:31:57.312Z,8.96
2019-04-03T06:34:24.851Z,8.75
2019-04-03T06:36:52.449Z,8.75
2019-04-03T06:39:22.389Z,8.78
2019-04-03T06:41:49.232Z,8.77
2019-04-03T06:44:16.557Z,8.73
2019-04-03T06:46:43.951Z,8.29
2019-04-03T06:49:11.351Z,8.54
2019-04-03T06:51:39.032Z,8.82
2019-04-03T06:54:08.137Z,8.53
2019-04-03T06:56:35.890Z,8.59
2019-04-03T06:59:03.221Z,8.81
2019-04-03T07:01:30.645Z,8.91
2019-04-03T07:03:58.175Z,8.88
2019-04-03T07:06:25.516Z,8.60
2019-04-03T07:08:52.987Z,8.78
2019-04-03T07:11:23.621Z,9.01
2019-04-03T07:13:49.651Z,9.23
2019-04-03T07:16:17.135Z,9.06
2019-04-03T07:18:44.767Z,9.17
2019-04-03T07:21:12.170Z,9.46
2019-04-03T07:23:39.552Z,9.73
2019-04-03T07:26:06.918Z,9.93
2019-04-03T07:28:34.298Z,10.40
2019-04-03T07:31:02.025Z,10.36
2019-04-03T07:33:29.559Z,10.34
2019-04-03T07:35:56.922Z,10.61
2019-04-03T07:38:24.628Z,10.78
2019-04-03T07:40:52.475Z,11.13
2019-04-03T07:43:20.327Z,11.18
2019-04-03T07:45:47.731Z,11.06
2019-04-03T07:48:15.087Z,11.39
2019-04-03T07:50:43.147Z,11.18
2019-04-03T07:53:10.510Z,11.36
2019-04-03T07:55:37.870Z,11.34
2019-04-03T07:58:05.231Z,11.41
2019-04-03T08:00:32.567Z,11.49
2019-04-03T08:03:00.203Z,11.65
2019-04-03T08:05:30.158Z,11.34
2019-04-03T08:07:56.896Z,11.04
2019-04-03T08:10:24.851Z,10.71
2019-04-03T08:12:52.190Z,10.87
2019-04-03T08:15:19.581Z,11.14
2019-04-03T08:17:49.203Z,11.13
2019-04-03T08:20:16.261Z,11.21
2019-04-03T08:22:43.635Z,11.37
2019-04-03T08:25:12.434Z,11.91
2019-04-03T08:27:40.225Z,12.07
2019-04-03T08:30:08.646Z,12.58
2019-04-03T08:32:36.312Z,12.96
2019-04-03T08:35:04.754Z,13.06
2019-04-03T08:37:32.782Z,13.61
2019-04-03T08:40:00.317Z,13.62
2019-04-03T08:42:28.370Z,13.40
2019-04-03T08:44:56.831Z,13.69
2019-04-03T08:47:24.366Z,14.40
2019-04-03T08:49:51.708Z,14.53
2019-04-03T08:52:19.316Z,14.41
2019-04-03T08:54:46.770Z,14.58
2019-04-03T08:57:14.105Z,14.53
2019-04-03T08:59:41.625Z,14.20
2019-04-03T09:02:12.232Z,15.00
2019-04-03T09:04:38.305Z,14.99
2019-04-03T09:07:05.659Z,15.12
2019-04-03T09:09:35.213Z,15.11
2019-04-03T09:12:02.732Z,15.43
2019-04-03T09:14:30.384Z,15.20
2019-04-03T09:16:57.811Z,15.28
2019-04-03T09:19:25.160Z,15.38
2019-04-03T09:21:52.535Z,15.52
2019-04-03T09:24:20.051Z,15.64
2019-04-03T09:26:47.648Z,15.52
2019-04-03T09:29:14.994Z,15.31
2019-04-03T09:31:42.393Z,15.70
2019-04-03T09:34:09.934Z,15.55
2019-04-03T09:36:37.454Z,15.65
2019-04-03T09:39:08.655Z,15.93
2019-04-03T09:41:36.047Z,16.28
2019-04-03T09:44:03.478Z,16.44
2019-04-03T09:46:31.550Z,16.43
2019-04-03T09:48:59.359Z,16.08
2019-04-03T09:51:26.937Z,16.48
2019-04-03T09:53:57.056Z,16.64
2019-04-03T09:56:23.711Z,16.50
2019-04-03T09:58:51.107Z,16.73
2019-04-03T10:01:19.006Z,16.66
2019-04-03T10:03:47.079Z,16.71
2019-04-03T10:06:14.561Z,16.55
2019-04-03T10:08:41.945Z,16.95
2019-04-03T10:11:09.311Z,17.13
2019-04-03T10:13:36.660Z,17.11
2019-04-03T10:16:04.407Z,17.45
2019-04-03T10:18:31.939Z,17.14
2019-04-03T10:21:00.086Z,17.18
2019-04-03T10:23:29.128Z,17.26
2019-04-03T10:25:56.845Z,16.96
2019-04-03T10:28:24.360Z,17.06
2019-04-03T10:30:52.887Z,17.17
2019-04-03T10:33:21.179Z,17.10
2019-04-03T10:35:48.962Z,17.10
2019-04-03T10:38:18.273Z,17.55
2019-04-03T10:40:45.947Z,17.10
2019-04-03T10:43:13.341Z,17.23
2019-04-03T10:45:40.713Z,17.29
2019-04-03T10:48:08.079Z,17.49
2019-04-03T10:50:37.558Z,16.99
2019-04-03T10:53:04.786Z,16.45
2019-04-03T10:55:32.451Z,16.38
2019-04-03T10:58:02.198Z,16.38
2019-04-03T11:00:29.583Z,16.55
2019-04-03T11:02:57.437Z,16.38
2019-04-03T11:05:25.114Z,16.48
2019-04-03T11:07:52.650Z,16.94
2019-04-03T11:10:20.040Z,17.34
2019-04-03T11:12:47.635Z,16.62
2019-04-03T11:15:15.352Z,16.96
2019-04-03T11:17:42.685Z,17.00
2019-04-03T11:20:11.099Z,17.20
2019-04-03T11:22:41.824Z,17.64
2019-04-03T11:25:08.161Z,17.64
2019-04-03T11:27:42.675Z,17.46
2019-04-03T11:30:05.959Z,16.72
2019-04-03T11:32:33.494Z,17.10
2019-04-03T11:35:00.894Z,17.35
2019-04-03T11:37:28.371Z,17.18
2019-04-03T11:40:02.348Z,16.94
2019-04-03T11:42:28.690Z,17.09
2019-04-03T11:44:55.145Z,17.31
2019-04-03T11:47:22.677Z,17.27
2019-04-03T11:49:52.530Z,17.64
2019-04-03T11:52:19.667Z,17.86
2019-04-03T11:54:47.154Z,17.51
2019-04-03T11:57:16.342Z,17.50
2019-04-03T11:59:46.748Z,17.33
2019-04-03T12:02:13.931Z,17.87
2019-04-03T12:04:43.163Z,17.45
2019-04-03T12:07:10.808Z,17.85
2019-04-03T12:09:38.159Z,17.97
2019-04-03T12:12:05.638Z,17.96
2019-04-03T12:14:32.991Z,17.94
2019-04-03T12:17:00.346Z,18.14
2019-04-03T12:19:27.736Z,18.51
2019-04-03T12:21:55.485Z,18.08
2019-04-03T12:24:23.908Z,17.46
2019-04-03T12:26:52.548Z,17.77
2019-04-03T12:29:21.507Z,17.70
2019-04-03T12:31:50.169Z,18.50
2019-04-03T12:34:17.587Z,18.09
2019-04-03T12:36:46.114Z,18.02
2019-04-03T12:39:26.915Z,17.72
2019-04-03T12:41:55.101Z,18.14
2019-04-03T12:44:22.810Z,17.59
2019-04-03T12:46:50.221Z,17.73
2019-04-03T12:49:17.654Z,17.02
2019-04-03T12:51:45.057Z,17.55
2019-04-03T12:54:13.946Z,17.36
2019-04-03T12:56:41.701Z,17.49
2019-04-03T12:59:09.643Z,17.61
2019-04-03T13:01:37.840Z,17.44
2019-04-03T13:04:05.747Z,17.91
2019-04-03T13:06:33.594Z,17.56
2019-04-03T13:09:01.763Z,17.86
2019-04-03T13:11:29.255Z,18.76
2019-04-03T13:13:57.297Z,18.66
2019-04-03T13:16:26.191Z,17.58
2019-04-03T13:18:54.112Z,17.33
2019-04-03T13:21:21.811Z,17.72
2019-04-03T13:23:49.622Z,17.68
2019-04-03T13:26:17.606Z,18.32
2019-04-03T13:28:45.010Z,18.21
2019-04-03T13:31:12.904Z,19.42
2019-04-03T13:33:42.045Z,18.91
2019-04-03T13:36:09.487Z,19.06
2019-04-03T13:38:36.999Z,18.55
2019-04-03T13:41:05.692Z,18.52
2019-04-03T13:43:33.564Z,18.01
2019-04-03T13:46:03.921Z,18.56
2019-04-03T13:48:30.888Z,19.05
2019-04-03T13:50:59.105Z,18.36
2019-04-03T13:53:27.766Z,18.71
2019-04-03T13:55:55.866Z,19.06
2019-04-03T13:58:27.413Z,18.43
2019-04-03T14:01:01.068Z,17.63
2019-04-03T14:03:23.197Z,17.52
2019-04-03T14:05:51.151Z,18.21
2019-04-03T14:08:19.134Z,17.93
2019-04-03T14:10:46.670Z,17.93
2019-04-03T14:13:14.508Z,17.85
2019-04-03T14:15:42.251Z,18.02
2019-04-03T14:18:09.895Z,17.72
2019-04-03T14:20:37.519Z,17.89
2019-04-03T14:23:05.942Z,17.38
2019-04-03T14:25:37.095Z,17.51
2019-04-03T14:28:04.040Z,17.40
2019-04-03T14:30:32.366Z,16.86
2019-04-03T14:33:00.353Z,17.31
2019-04-03T14:35:49.878Z,16.93
2019-04-03T14:37:59.537Z,17.28
2019-04-03T14:40:29.185Z,17.08
2019-04-03T14:42:58.771Z,17.76
2019-04-03T14:45:26.694Z,18.01
2019-04-03T14:47:55.813Z,17.93
2019-04-03T14:50:24.705Z,17.26
2019-04-03T14:52:52.836Z,18.21
2019-04-03T14:55:22.697Z,17.56
2019-04-03T14:57:53.789Z,18.24
2019-04-03T15:00:28.899Z,17.75
2019-04-03T15:02:50.338Z,17.18
2019-04-03T15:05:18.651Z,16.92
2019-04-03T15:07:49.608Z,16.93
2019-04-03T15:10:16.542Z,16.23
2019-04-03T15:12:44.603Z,16.16
2019-04-03T15:15:14.050Z,16.23
2019-04-03T15:17:41.775Z,16.12
2019-04-03T15:20:10.424Z,16.07
2019-04-03T15:22:38.297Z,16.02
2019-04-03T15:25:06.424Z,15.70
2019-04-03T15:27:34.674Z,15.88
2019-04-03T15:30:02.777Z,16.15
2019-04-03T15:32:30.884Z,15.85
2019-04-03T15:34:59.740Z,16.11
2019-04-03T15:37:28.931Z,15.72
2019-04-03T15:39:59.240Z,15.68
2019-04-03T15:42:27.245Z,15.64
2019-04-03T15:44:57.168Z,15.68
2019-04-03T15:47:35.668Z,15.64
2019-04-03T15:49:56.077Z,15.49
2019-04-03T15:52:24.109Z,15.18
2019-04-03T15:54:52.046Z,15.60
2019-04-03T15:57:21.146Z,15.56
2019-04-03T15:59:52.061Z,15.61
2019-04-03T16:02:19.466Z,15.36
2019-04-03T16:04:47.786Z,15.71
2019-04-03T16:07:16.114Z,15.46
2019-04-03T16:09:43.834Z,15.33
2019-04-03T16:12:11.565Z,15.32
2019-04-03T16:14:39.905Z,15.01
2019-04-03T16:17:08.021Z,15.18
2019-04-03T16:19:36.346Z,15.45
2019-04-03T16:22:04.799Z,15.75
2019-04-03T16:24:33.444Z,15.48
2019-04-03T16:27:01.736Z,15.35
2019-04-03T16:29:30.809Z,15.64
2019-04-03T16:31:59.544Z,15.40
2019-04-03T16:34:27.668Z,15.53
2019-04-03T16:36:55.462Z,16.05
2019-04-03T16:39:23.594Z,16.13
2019-04-03T16:41:51.606Z,15.75
2019-04-03T16:44:19.379Z,15.81
2019-04-03T16:46:47.340Z,16.95
2019-04-03T16:49:15.259Z,16.31
2019-04-03T16:51:43.493Z,15.58
2019-04-03T16:54:12.689Z,15.64
2019-04-03T16:56:40.790Z,15.92
2019-04-03T16:59:08.697Z,15.25
2019-04-03T17:01:36.671Z,15.41
2019-04-03T17:04:05.263Z,15.12
2019-04-03T17:06:33.340Z,15.22
2019-04-03T17:09:01.370Z,15.00
2019-04-03T17:11:29.276Z,14.91
2019-04-03T17:13:57.295Z,14.81
2019-04-03T17:16:25.321Z,14.77
2019-04-03T17:18:53.228Z,14.77
2019-04-03T17:21:21.171Z,14.55
2019-04-03T17:23:49.323Z,14.48
2019-04-03T17:26:17.312Z,14.59
2019-04-03T17:28:47.699Z,14.65
2019-04-03T17:31:15.686Z,14.57
2019-04-03T17:33:43.810Z,14.63
2019-04-03T17:36:11.804Z,14.56
2019-04-03T17:38:40.290Z,14.43
2019-04-03T17:41:08.423Z,14.33
2019-04-03T17:43:36.405Z,14.44
2019-04-03T17:46:04.475Z,14.24
2019-04-03T17:48:32.468Z,14.49
2019-04-03T17:51:02.196Z,14.50
2019-04-03T17:53:30.398Z,14.53
2019-04-03T17:56:00.614Z,14.48
2019-04-03T17:58:28.712Z,14.45
2019-04-03T18:00:59.110Z,13.85
2019-04-03T18:03:28.571Z,14.36
2019-04-03T18:05:59.128Z,14.31
2019-04-03T18:08:27.257Z,14.17
2019-04-03T18:10:55.659Z,14.24
2019-04-03T18:13:24.067Z,14.38
2019-04-03T18:15:52.378Z,14.22
2019-04-03T18:18:20.567Z,14.19
2019-04-03T18:20:48.732Z,13.99
2019-04-03T18:23:16.807Z,14.11
2019-04-03T18:25:46.336Z,13.93
2019-04-03T18:28:14.456Z,14.33
2019-04-03T18:30:43.079Z,13.98
2019-04-03T18:33:11.520Z,13.46
2019-04-03T18:35:39.657Z,13.89
2019-04-03T18:38:08.652Z,13.99
2019-04-03T18:40:37.025Z,13.92
2019-04-03T18:43:05.136Z,13.99
2019-04-03T18:45:33.310Z,14.03
2019-04-03T18:48:01.855Z,13.86
2019-04-03T18:50:30.077Z,13.98
2019-04-03T18:52:58.263Z,13.82
2019-04-03T18:55:26.373Z,13.84
2019-04-03T18:57:54.426Z,13.84
2019-04-03T19:00:22.663Z,13.80
2019-04-03T19:02:51.589Z,13.71
2019-04-03T19:05:20.853Z,13.68
2019-04-03T19:07:49.079Z,13.58
2019-04-03T19:10:18.476Z,13.55
2019-04-03T19:12:46.910Z,13.79
2019-04-03T19:15:16.398Z,13.55
2019-04-03T19:17:44.431Z,13.59
2019-04-03T19:20:13.570Z,13.08
2019-04-03T19:22:41.664Z,12.65
2019-04-03T19:25:10.031Z,12.97
2019-04-03T19:27:38.297Z,12.72
2019-04-03T19:30:08.187Z,12.94
2019-04-03T19:32:36.471Z,12.62
2019-04-03T19:35:05.015Z,13.11
2019-04-03T19:37:34.136Z,13.53
2019-04-03T19:40:02.458Z,12.77
2019-04-03T19:42:32.251Z,12.64
2019-04-03T19:45:00.335Z,12.15
2019-04-03T19:47:28.368Z,12.46
2019-04-03T19:50:00.017Z,12.62
2019-04-03T19:52:26.383Z,12.60
2019-04-03T19:54:54.293Z,12.62
2019-04-03T19:57:22.647Z,12.41
2019-04-03T19:59:50.909Z,12.05
2019-04-03T20:02:19.122Z,11.82
2019-04-03T20:04:48.295Z,12.09
2019-04-03T20:07:16.332Z,12.44
2019-04-03T20:09:44.328Z,12.39
2019-04-03T20:12:12.263Z,12.64
2019-04-03T20:14:44.161Z,12.83
2019-04-03T20:17:17.752Z,12.47
2019-04-03T20:19:45.660Z,12.52
2019-04-03T20:22:13.490Z,12.50
2019-04-03T20:24:43.446Z,12.37
2019-04-03T20:27:11.372Z,12.46
2019-04-03T20:29:42.193Z,12.28
2019-04-03T20:32:14.231Z,12.50
2019-04-03T20:34:44.430Z,12.30
2019-04-03T20:37:12.005Z,12.50
2019-04-03T20:39:40.011Z,12.37
2019-04-03T20:42:08.314Z,12.51
2019-04-03T20:44:38.654Z,12.60
2019-04-03T20:47:06.203Z,12.48
2019-04-03T20:49:35.759Z,12.62
2019-04-03T20:52:04.049Z,12.51
2019-04-03T20:54:31.746Z,12.29
2019-04-03T20:57:02.254Z,12.12
2019-04-03T20:59:30.186Z,12.96
2019-04-03T21:01:57.978Z,13.57
2019-04-03T21:04:25.491Z,13.32
2019-04-03T21:06:52.871Z,13.05
2019-04-03T21:09:20.394Z,13.27
2019-04-03T21:11:50.676Z,13.49
2019-04-03T21:14:18.071Z,13.42
2019-04-03T21:16:47.845Z,13.46
2019-04-03T21:19:14.760Z,13.27
2019-04-03T21:21:42.085Z,13.50
2019-04-03T21:24:09.447Z,13.53
2019-04-03T21:26:38.271Z,13.32
2019-04-03T21:29:06.001Z,13.33
2019-04-03T21:31:33.794Z,13.35
2019-04-03T21:34:02.044Z,13.41
2019-04-03T21:36:29.897Z,13.47
2019-04-03T21:38:57.261Z,13.21
2019-04-03T21:41:24.640Z,13.19
2019-04-03T21:43:52.056Z,13.01
2019-04-03T21:46:19.471Z,13.29
2019-04-03T21:48:46.855Z,13.12
2019-04-03T21:51:14.261Z,12.65
2019-04-03T21:53:41.666Z,12.56
2019-04-03T21:56:09.062Z,12.55
2019-04-03T21:58:37.870Z,12.36
2019-04-03T22:01:16.311Z,12.46
2019-04-03T22:03:43.781Z,12.41
2019-04-03T22:06:11.221Z,12.37
2019-04-03T22:08:38.592Z,12.28
2019-04-03T22:11:06.211Z,12.80
2019-04-03T22:13:33.591Z,12.72
2019-04-03T22:16:00.955Z,12.62
2019-04-03T22:18:28.369Z,12.40
2019-04-03T22:20:55.748Z,12.68
2019-04-03T22:23:23.107Z,13.04
2019-04-03T22:25:50.522Z,13.10
2019-04-03T22:28:17.915Z,12.78
2019-04-03T22:30:45.370Z,13.14
2019-04-03T22:33:12.732Z,12.99
2019-04-03T22:35:40.082Z,12.90
2019-04-03T22:38:07.467Z,12.88
2019-04-03T22:40:34.840Z,12.92
2019-04-03T22:43:02.228Z,12.94
2019-04-03T22:45:29.585Z,12.68
2019-04-03T22:47:56.993Z,12.93
2019-04-03T22:50:24.414Z,12.38
2019-04-03T22:52:51.853Z,12.15
2019-04-03T22:55:19.231Z,12.32
2019-04-03T22:57:46.636Z,11.96
2019-04-03T23:00:14.012Z,12.11
2019-04-03T23:02:41.409Z,12.08
2019-04-03T23:05:08.797Z,11.51
2019-04-03T23:07:36.181Z,11.21
2019-04-03T23:10:04.116Z,11.37
2019-04-03T23:12:33.114Z,11.23
2019-04-03T23:15:00.835Z,11.33
2019-04-03T23:17:28.263Z,11.37
2019-04-03T23:19:55.699Z,11.13
2019-04-03T23:22:25.563Z,11.24
2019-04-03T23:24:52.371Z,11.38
2019-04-03T23:27:19.753Z,11.34
2019-04-03T23:29:47.114Z,11.18
2019-04-03T23:32:15.416Z,10.97
2019-04-03T23:34:43.509Z,10.94
2019-04-03T23:37:10.872Z,10.41
2019-04-03T23:39:38.271Z,10.41
2019-04-03T23:42:06.880Z,10.27
2019-04-03T23:44:34.980Z,10.36
2019-04-03T23:47:02.351Z,10.43
2019-04-03T23:49:29.697Z,10.24
2019-04-03T23:51:58.985Z,10.29
2019-04-03T23:54:26.406Z,10.18
2019-04-03T23:56:54.982Z,10.45
2019-04-03T23:59:22.395Z,10.62
